createdAt,value
2019-01-14T00:01:58.252Z,5.40
2019-01-14T00:04:27.698Z,5.40
2019-01-14T00:06:57.149Z,5.40
2019-01-14T00:09:31.195Z,5.30
2019-01-14T00:11:57.649Z,5.30
2019-01-14T00:14:27.171Z,5.30
2019-01-14T00:16:56.651Z,5.30
2019-01-14T00:19:26.078Z,5.20
2019-01-14T00:21:55.516Z,5.20
2019-01-14T00:24:25.149Z,5.20
2019-01-14T00:26:54.492Z,5.10
2019-01-14T00:29:23.931Z,5.10
2019-01-14T00:31:53.356Z,5.10
2019-01-14T00:34:23.166Z,5.10
2019-01-14T00:36:53.465Z,5.10
2019-01-14T00:39:22.839Z,5.10
2019-01-14T00:41:52.903Z,5.00
2019-01-14T00:44:22.370Z,5.00
2019-01-14T00:46:51.774Z,5.00
2019-01-14T00:49:21.196Z,4.90
2019-01-14T00:51:50.618Z,4.90
2019-01-14T00:54:20.359Z,4.90
2019-01-14T00:56:49.777Z,4.90
2019-01-14T00:59:19.398Z,4.90
2019-01-14T01:01:48.957Z,4.90
2019-01-14T01:04:18.364Z,4.90
2019-01-14T01:06:48.006Z,4.90
2019-01-14T01:09:17.499Z,4.80
2019-01-14T01:11:46.946Z,4.90
2019-01-14T01:14:16.360Z,4.90
2019-01-14T01:16:45.880Z,4.90
2019-01-14T01:19:15.836Z,4.80
2019-01-14T01:21:45.258Z,4.80
2019-01-14T01:24:14.649Z,4.80
2019-01-14T01:26:44.072Z,4.80
2019-01-14T01:29:13.513Z,4.80
2019-01-14T01:31:42.898Z,4.80
2019-01-14T01:34:12.342Z,4.80
2019-01-14T01:36:41.696Z,4.90
2019-01-14T01:39:11.187Z,4.90
2019-01-14T01:41:40.606Z,4.90
2019-01-14T01:44:10.052Z,4.90
2019-01-14T01:46:39.404Z,4.90
2019-01-14T01:49:08.886Z,4.90
2019-01-14T01:51:38.322Z,4.90
2019-01-14T01:54:08.663Z,4.90
2019-01-14T01:56:38.100Z,4.90
2019-01-14T01:59:07.582Z,4.90
2019-01-14T02:01:37.014Z,4.90
2019-01-14T02:04:06.592Z,4.90
2019-01-14T02:06:39.244Z,4.90
2019-01-14T02:09:08.436Z,4.90
2019-01-14T02:11:38.060Z,5.00
2019-01-14T02:14:07.820Z,5.00
2019-01-14T02:16:37.552Z,5.00
2019-01-14T02:19:06.922Z,5.00
2019-01-14T02:21:36.362Z,5.10
2019-01-14T02:24:05.815Z,5.10
2019-01-14T02:26:35.168Z,5.10
2019-01-14T02:29:05.017Z,5.10
2019-01-14T02:31:34.455Z,5.10
2019-01-14T02:34:04.208Z,5.10
2019-01-14T02:36:35.172Z,5.20
2019-01-14T02:39:07.540Z,5.20
2019-01-14T02:41:37.220Z,5.20
2019-01-14T02:44:06.564Z,5.20
2019-01-14T02:46:36.120Z,5.20
2019-01-14T02:49:05.561Z,5.20
2019-01-14T02:51:34.993Z,5.20
2019-01-14T02:54:04.886Z,5.10
2019-01-14T02:56:34.291Z,5.10
2019-01-14T02:59:03.749Z,5.10
2019-01-14T03:01:33.313Z,5.00
2019-01-14T03:04:03.034Z,5.00
2019-01-14T03:06:32.446Z,5.00
2019-01-14T03:09:01.862Z,4.90
2019-01-14T03:11:31.277Z,4.90
2019-01-14T03:14:00.822Z,4.90
2019-01-14T03:16:30.536Z,4.90
2019-01-14T03:18:59.939Z,4.80
2019-01-14T03:21:29.389Z,4.80
2019-01-14T03:23:59.226Z,4.80
2019-01-14T03:26:29.064Z,4.80
2019-01-14T03:28:58.526Z,4.70
2019-01-14T03:31:27.943Z,4.70
2019-01-14T03:33:57.794Z,4.70
2019-01-14T03:36:27.216Z,4.70
2019-01-14T03:38:58.081Z,4.70
2019-01-14T03:41:27.691Z,4.70
2019-01-14T03:43:57.101Z,4.70
2019-01-14T03:46:26.516Z,4.70
2019-01-14T03:48:56.370Z,4.70
2019-01-14T03:51:25.932Z,4.70
2019-01-14T03:53:55.474Z,4.70
2019-01-14T03:56:25.044Z,4.60
2019-01-14T03:58:54.586Z,4.60
2019-01-14T04:01:24.020Z,4.60
2019-01-14T04:03:53.463Z,4.60
2019-01-14T04:06:22.889Z,4.50
2019-01-14T04:08:52.727Z,4.50
2019-01-14T04:11:22.119Z,4.50
2019-01-14T04:13:51.497Z,4.60
2019-01-14T04:16:21.004Z,4.60
2019-01-14T04:18:50.439Z,4.60
2019-01-14T04:21:19.851Z,4.60
2019-01-14T04:23:49.289Z,4.60
2019-01-14T04:26:18.709Z,4.60
2019-01-14T04:28:48.247Z,4.60
2019-01-14T04:31:17.715Z,4.60
2019-01-14T04:33:47.161Z,4.60
2019-01-14T04:36:16.595Z,4.60
2019-01-14T04:38:46.241Z,4.60
2019-01-14T04:41:16.047Z,4.60
2019-01-14T04:43:46.134Z,4.60
2019-01-14T04:46:15.551Z,4.50
2019-01-14T04:48:44.967Z,4.40
2019-01-14T04:51:14.414Z,4.30
2019-01-14T04:53:43.953Z,4.30
2019-01-14T04:56:13.392Z,4.20
2019-01-14T04:58:42.833Z,4.10
2019-01-14T05:01:12.462Z,4.10
2019-01-14T05:03:42.295Z,4.00
2019-01-14T05:06:11.897Z,3.90
2019-01-14T05:08:41.325Z,3.90
2019-01-14T05:11:10.787Z,3.90
2019-01-14T05:13:40.322Z,3.90
2019-01-14T05:16:09.766Z,3.80
2019-01-14T05:18:39.276Z,3.80
2019-01-14T05:21:08.743Z,3.80
2019-01-14T05:23:38.177Z,3.80
2019-01-14T05:26:07.630Z,3.70
2019-01-14T05:28:37.419Z,3.70
2019-01-14T05:31:06.899Z,3.70
2019-01-14T05:33:36.406Z,3.70
2019-01-14T05:36:06.065Z,3.70
2019-01-14T05:38:35.470Z,3.60
2019-01-14T05:41:04.910Z,3.60
2019-01-14T05:43:36.297Z,3.60
2019-01-14T05:46:06.147Z,3.60
2019-01-14T05:48:35.572Z,3.60
2019-01-14T05:51:05.422Z,3.60
2019-01-14T05:53:34.841Z,3.60
2019-01-14T05:56:04.299Z,3.50
2019-01-14T05:58:33.750Z,3.60
2019-01-14T06:01:03.243Z,3.60
2019-01-14T06:03:32.735Z,3.60
2019-01-14T06:06:02.271Z,3.60
2019-01-14T06:08:31.718Z,3.40
2019-01-14T06:11:01.965Z,3.30
2019-01-14T06:13:31.383Z,3.20
2019-01-14T06:16:00.848Z,3.10
2019-01-14T06:18:30.611Z,3.10
2019-01-14T06:21:00.051Z,3.10
2019-01-14T06:23:29.487Z,3.10
2019-01-14T06:25:59.355Z,3.00
2019-01-14T06:28:29.146Z,2.80
2019-01-14T06:30:58.713Z,2.60
2019-01-14T06:33:28.149Z,2.50
2019-01-14T06:35:59.143Z,2.40
2019-01-14T06:38:28.773Z,2.40
2019-01-14T06:40:58.324Z,2.40
2019-01-14T06:43:27.979Z,2.30
2019-01-14T06:45:57.390Z,2.30
2019-01-14T06:48:26.825Z,2.40
2019-01-14T06:50:56.246Z,2.40
2019-01-14T06:53:25.703Z,2.30
2019-01-14T06:55:55.127Z,2.40
2019-01-14T06:58:24.947Z,2.40
2019-01-14T07:00:54.379Z,2.40
2019-01-14T07:03:23.859Z,2.40
2019-01-14T07:05:53.448Z,2.40
2019-01-14T07:08:23.269Z,2.40
2019-01-14T07:10:53.617Z,2.40
2019-01-14T07:13:23.119Z,2.50
2019-01-14T07:15:52.641Z,2.50
2019-01-14T07:18:22.154Z,2.50
2019-01-14T07:20:51.725Z,2.50
2019-01-14T07:23:21.187Z,2.40
2019-01-14T07:25:50.620Z,2.40
2019-01-14T07:28:20.085Z,2.40
2019-01-14T07:30:49.831Z,2.40
2019-01-14T07:33:19.245Z,2.40
2019-01-14T07:35:48.661Z,2.40
2019-01-14T07:38:18.175Z,2.40
2019-01-14T07:40:47.629Z,2.40
2019-01-14T07:43:17.009Z,2.40
2019-01-14T07:45:46.417Z,2.40
2019-01-14T07:48:15.861Z,2.40
2019-01-14T07:50:45.259Z,2.40
2019-01-14T07:53:14.697Z,2.40
2019-01-14T07:55:44.439Z,2.40
2019-01-14T07:58:13.863Z,2.40
2019-01-14T08:00:43.283Z,2.40
2019-01-14T08:03:12.715Z,2.40
2019-01-14T08:05:42.147Z,2.40
2019-01-14T08:08:14.232Z,2.40
2019-01-14T08:10:42.689Z,2.40
2019-01-14T08:13:12.125Z,2.40
2019-01-14T08:15:41.575Z,2.50
2019-01-14T08:18:11.067Z,2.50
2019-01-14T08:20:40.505Z,2.50
2019-01-14T08:23:09.945Z,2.60
2019-01-14T08:25:40.701Z,2.60
2019-01-14T08:28:10.117Z,2.60
2019-01-14T08:30:39.710Z,2.60
2019-01-14T08:33:09.233Z,2.60
2019-01-14T08:35:38.760Z,2.60
2019-01-14T08:38:08.221Z,2.50
2019-01-14T08:40:37.747Z,2.30
2019-01-14T08:43:07.187Z,2.30
2019-01-14T08:45:36.934Z,2.20
2019-01-14T08:48:06.461Z,2.20
2019-01-14T08:50:35.869Z,2.10
2019-01-14T08:53:05.472Z,2.10
2019-01-14T08:55:34.885Z,2.10
2019-01-14T08:58:04.512Z,2.00
2019-01-14T09:00:34.274Z,2.00
2019-01-14T09:03:04.059Z,2.10
2019-01-14T09:05:33.536Z,2.10
2019-01-14T09:08:03.208Z,2.20
2019-01-14T09:10:32.652Z,2.20
2019-01-14T09:13:02.112Z,2.20
2019-01-14T09:15:31.513Z,2.30
2019-01-14T09:18:02.842Z,2.30
2019-01-14T09:20:32.022Z,2.40
2019-01-14T09:23:01.455Z,2.50
2019-01-14T09:25:30.931Z,2.50
2019-01-14T09:28:00.280Z,2.60
2019-01-14T09:30:29.834Z,2.60
2019-01-14T09:32:59.305Z,2.70
2019-01-14T09:35:28.869Z,2.80
2019-01-14T09:37:58.411Z,2.80
2019-01-14T09:40:27.930Z,2.90
2019-01-14T09:42:57.497Z,2.90
2019-01-14T09:45:26.946Z,3.00
2019-01-14T09:47:56.755Z,3.00
2019-01-14T09:50:26.205Z,3.00
2019-01-14T09:52:55.601Z,3.00
2019-01-14T09:55:24.981Z,3.00
2019-01-14T09:57:54.417Z,3.00
2019-01-14T10:00:23.886Z,3.00
2019-01-14T10:02:55.571Z,3.00
2019-01-14T10:05:24.483Z,3.00
2019-01-14T10:07:54.027Z,3.00
2019-01-14T10:10:23.477Z,3.00
2019-01-14T10:12:52.921Z,3.00
2019-01-14T10:15:24.213Z,2.90
2019-01-14T10:17:59.309Z,3.00
2019-01-14T10:20:28.741Z,3.00
2019-01-14T10:22:58.152Z,3.00
2019-01-14T10:25:27.553Z,3.00
2019-01-14T10:27:56.911Z,3.00
2019-01-14T10:30:26.367Z,3.10
2019-01-14T10:32:55.698Z,3.10
2019-01-14T10:35:25.215Z,3.10
2019-01-14T10:37:54.645Z,3.10
2019-01-14T10:40:24.151Z,3.10
2019-01-14T10:42:53.594Z,3.00
2019-01-14T10:45:23.926Z,2.90
2019-01-14T10:47:53.380Z,2.80
2019-01-14T10:50:22.898Z,2.70
2019-01-14T10:52:52.517Z,2.70
2019-01-14T10:55:21.955Z,2.80
2019-01-14T10:57:51.566Z,2.80
2019-01-14T11:00:23.319Z,2.90
2019-01-14T11:02:52.972Z,2.90
2019-01-14T11:05:25.649Z,2.90
2019-01-14T11:07:55.292Z,2.80
2019-01-14T11:10:24.813Z,2.80
2019-01-14T11:12:54.267Z,2.90
2019-01-14T11:15:23.969Z,2.90
2019-01-14T11:17:53.707Z,2.90
2019-01-14T11:20:25.406Z,3.00
2019-01-14T11:22:54.860Z,3.00
2019-01-14T11:25:24.436Z,3.00
2019-01-14T11:27:53.851Z,3.10
2019-01-14T11:30:28.256Z,3.20
2019-01-14T11:32:57.709Z,3.30
2019-01-14T11:35:27.204Z,3.30
2019-01-14T11:37:56.801Z,3.40
2019-01-14T11:40:37.172Z,3.40
2019-01-14T11:43:06.711Z,3.50
2019-01-14T11:45:36.713Z,3.50
2019-01-14T11:48:06.730Z,3.60
2019-01-14T11:50:36.491Z,3.60
2019-01-14T11:53:05.923Z,3.60
2019-01-14T11:55:36.163Z,3.70
2019-01-14T11:58:05.979Z,3.80
2019-01-14T12:00:36.730Z,3.90
2019-01-14T12:03:06.343Z,4.00
2019-01-14T12:05:35.803Z,4.10
2019-01-14T12:08:06.251Z,4.20
2019-01-14T12:10:35.781Z,4.20
2019-01-14T12:13:05.271Z,4.20
2019-01-14T12:15:34.689Z,4.40
2019-01-14T12:18:04.491Z,4.50
2019-01-14T12:20:33.929Z,4.50
2019-01-14T12:23:03.421Z,4.30
2019-01-14T12:25:32.860Z,4.10
2019-01-14T12:28:02.252Z,4.00
2019-01-14T12:30:34.132Z,3.50
2019-01-14T12:33:04.148Z,3.10
2019-01-14T12:35:33.555Z,3.00
2019-01-14T12:38:02.885Z,3.00
2019-01-14T12:40:32.304Z,2.90
2019-01-14T12:43:02.320Z,2.90
2019-01-14T12:45:32.341Z,2.80
2019-01-14T12:48:01.748Z,2.70
2019-01-14T12:50:31.203Z,2.70
2019-01-14T12:53:00.624Z,2.70
2019-01-14T12:55:30.075Z,2.70
2019-01-14T12:57:59.499Z,2.70
2019-01-14T13:00:30.117Z,2.70
2019-01-14T13:02:59.553Z,2.80
2019-01-14T13:05:30.055Z,2.90
2019-01-14T13:07:59.469Z,3.00
2019-01-14T13:10:28.925Z,3.10
2019-01-14T13:12:58.426Z,3.20
2019-01-14T13:15:29.436Z,3.20
2019-01-14T13:17:58.863Z,3.20
2019-01-14T13:20:28.402Z,3.20
2019-01-14T13:22:58.127Z,3.30
2019-01-14T13:25:27.701Z,3.30
2019-01-14T13:27:57.173Z,3.30
2019-01-14T13:30:31.328Z,3.30
2019-01-14T13:33:01.691Z,3.20
2019-01-14T13:35:31.101Z,3.20
2019-01-14T13:38:00.689Z,3.20
2019-01-14T13:40:30.081Z,3.20
2019-01-14T13:42:59.548Z,3.20
2019-01-14T13:45:29.768Z,3.20
2019-01-14T13:47:59.194Z,3.20
2019-01-14T13:50:28.669Z,3.20
2019-01-14T13:52:58.113Z,3.20
2019-01-14T13:55:27.540Z,3.10
2019-01-14T13:57:59.955Z,3.10
2019-01-14T14:00:28.958Z,3.00
2019-01-14T14:02:58.444Z,2.80
2019-01-14T14:05:28.291Z,2.60
2019-01-14T14:07:57.670Z,2.20
2019-01-14T14:10:32.010Z,2.10
2019-01-14T14:13:01.458Z,1.90
2019-01-14T14:15:30.977Z,2.00
2019-01-14T14:18:00.531Z,2.00
2019-01-14T14:20:30.003Z,2.10
2019-01-14T14:22:59.730Z,2.10
2019-01-14T14:25:29.178Z,2.10
2019-01-14T14:27:58.639Z,2.20
2019-01-14T14:30:33.414Z,2.30
2019-01-14T14:33:02.857Z,2.30
2019-01-14T14:35:32.281Z,2.30
2019-01-14T14:38:01.772Z,2.30
2019-01-14T14:40:31.198Z,2.30
2019-01-14T14:43:00.645Z,2.30
2019-01-14T14:45:30.122Z,2.30
2019-01-14T14:47:59.551Z,2.40
2019-01-14T14:50:29.003Z,2.40
2019-01-14T14:52:58.453Z,2.40
2019-01-14T14:55:27.901Z,2.50
2019-01-14T14:57:57.604Z,2.50
2019-01-14T15:00:27.381Z,2.50
2019-01-14T15:02:57.065Z,2.40
2019-01-14T15:05:26.463Z,2.40
2019-01-14T15:07:55.900Z,2.40
2019-01-14T15:10:25.503Z,2.40
2019-01-14T15:12:54.938Z,2.50
2019-01-14T15:15:25.202Z,2.50
2019-01-14T15:17:54.803Z,2.50
2019-01-14T15:20:24.937Z,2.50
2019-01-14T15:22:54.353Z,2.50
2019-01-14T15:25:23.768Z,2.50
2019-01-14T15:27:53.182Z,2.50
2019-01-14T15:30:27.272Z,2.50
2019-01-14T15:32:56.695Z,2.50
2019-01-14T15:35:26.355Z,2.60
2019-01-14T15:37:55.877Z,2.60
2019-01-14T15:40:25.966Z,2.60
2019-01-14T15:42:55.812Z,2.70
2019-01-14T15:45:26.880Z,2.60
2019-01-14T15:47:57.294Z,2.60
2019-01-14T15:50:26.699Z,2.60
2019-01-14T15:52:56.120Z,2.60
2019-01-14T15:55:27.408Z,2.60
2019-01-14T15:57:57.180Z,2.60
2019-01-14T16:00:27.095Z,2.60
2019-01-14T16:02:56.712Z,2.60
2019-01-14T16:05:26.613Z,2.60
2019-01-14T16:07:56.308Z,2.60
2019-01-14T16:10:27.266Z,2.60
2019-01-14T16:12:56.915Z,2.60
2019-01-14T16:15:26.414Z,2.50
2019-01-14T16:17:55.854Z,2.50
2019-01-14T16:20:26.819Z,2.50
2019-01-14T16:22:56.555Z,2.50
2019-01-14T16:25:26.464Z,2.50
2019-01-14T16:27:56.378Z,2.50
2019-01-14T16:30:27.270Z,2.50
2019-01-14T16:32:56.913Z,2.50
2019-01-14T16:35:26.440Z,2.60
2019-01-14T16:37:56.195Z,2.90
2019-01-14T16:40:25.640Z,2.90
2019-01-14T16:42:55.270Z,2.70
2019-01-14T16:45:28.584Z,2.60
2019-01-14T16:47:57.989Z,2.50
2019-01-14T16:50:27.584Z,2.50
2019-01-14T16:52:56.947Z,2.50
2019-01-14T16:55:46.172Z,2.50
2019-01-14T16:58:15.698Z,2.50
2019-01-14T17:00:45.149Z,2.40
2019-01-14T17:03:14.831Z,2.40
2019-01-14T17:05:44.290Z,2.40
2019-01-14T17:08:13.820Z,2.40
2019-01-14T17:10:43.372Z,2.40
2019-01-14T17:13:12.760Z,2.40
2019-01-14T17:15:42.114Z,2.30
2019-01-14T17:18:11.858Z,2.30
2019-01-14T17:20:41.253Z,2.30
2019-01-14T17:23:10.847Z,2.40
2019-01-14T17:25:40.824Z,2.40
2019-01-14T17:28:10.274Z,2.40
2019-01-14T17:30:40.700Z,2.40
2019-01-14T17:33:10.215Z,2.40
2019-01-14T17:35:39.730Z,2.50
2019-01-14T17:38:09.116Z,2.40
2019-01-14T17:40:38.524Z,2.40
2019-01-14T17:43:08.059Z,2.40
2019-01-14T17:45:37.460Z,2.50
2019-01-14T17:48:07.015Z,2.50
2019-01-14T17:50:36.486Z,2.50
2019-01-14T17:53:06.820Z,2.50
2019-01-14T17:55:36.767Z,2.60
2019-01-14T17:58:06.505Z,2.50
2019-01-14T18:00:36.096Z,2.50
2019-01-14T18:03:05.771Z,2.60
2019-01-14T18:05:35.165Z,2.50
2019-01-14T18:08:04.903Z,2.60
2019-01-14T18:10:39.876Z,2.60
2019-01-14T18:13:05.644Z,2.60
2019-01-14T18:15:35.090Z,2.60
2019-01-14T18:18:04.749Z,2.50
2019-01-14T18:20:34.133Z,2.60
2019-01-14T18:23:03.644Z,2.60
2019-01-14T18:25:33.055Z,2.60
2019-01-14T18:28:02.509Z,2.70
2019-01-14T18:30:31.963Z,2.70
2019-01-14T18:33:01.428Z,2.70
2019-01-14T18:35:30.886Z,2.80
2019-01-14T18:38:00.617Z,2.80
2019-01-14T18:40:33.951Z,2.70
2019-01-14T18:43:01.630Z,2.80
2019-01-14T18:45:31.053Z,2.80
2019-01-14T18:48:00.411Z,2.80
2019-01-14T18:50:30.199Z,2.80
2019-01-14T18:52:59.650Z,2.90
2019-01-14T18:55:29.177Z,2.90
2019-01-14T18:57:58.966Z,3.00
2019-01-14T19:00:28.500Z,3.00
2019-01-14T19:02:58.377Z,3.00
2019-01-14T19:05:27.846Z,3.10
2019-01-14T19:07:57.338Z,3.10
2019-01-14T19:10:27.023Z,3.10
2019-01-14T19:12:56.447Z,3.10
2019-01-14T19:15:26.215Z,3.10
2019-01-14T19:17:55.961Z,3.10
2019-01-14T19:20:27.583Z,3.10
2019-01-14T19:22:57.425Z,3.10
2019-01-14T19:25:27.123Z,3.20
2019-01-14T19:27:56.617Z,3.10
2019-01-14T19:30:26.416Z,3.10
2019-01-14T19:32:56.707Z,3.10
2019-01-14T19:35:26.604Z,3.10
2019-01-14T19:37:56.045Z,3.10
2019-01-14T19:40:28.939Z,3.00
2019-01-14T19:42:58.382Z,3.00
2019-01-14T19:45:27.821Z,3.00
2019-01-14T19:47:57.373Z,3.00
2019-01-14T19:50:26.914Z,3.00
2019-01-14T19:52:57.634Z,3.00
2019-01-14T19:55:27.011Z,3.00
2019-01-14T19:57:56.824Z,3.00
2019-01-14T20:00:30.485Z,3.00
2019-01-14T20:03:00.133Z,3.00
2019-01-14T20:05:29.573Z,3.00
2019-01-14T20:07:59.137Z,3.00
2019-01-14T20:10:28.581Z,3.00
2019-01-14T20:12:58.265Z,3.10
2019-01-14T20:15:27.743Z,3.00
2019-01-14T20:17:57.265Z,3.10
2019-01-14T20:20:26.705Z,3.10
2019-01-14T20:22:56.155Z,3.10
2019-01-14T20:25:25.745Z,3.10
2019-01-14T20:27:55.577Z,3.10
2019-01-14T20:30:25.649Z,3.10
2019-01-14T20:32:55.081Z,3.20
2019-01-14T20:35:24.831Z,3.20
2019-01-14T20:37:54.256Z,3.20
2019-01-14T20:40:23.845Z,3.30
2019-01-14T20:42:53.343Z,3.30
2019-01-14T20:45:22.781Z,3.30
2019-01-14T20:47:52.991Z,3.20
2019-01-14T20:50:23.206Z,3.20
2019-01-14T20:52:53.093Z,3.20
2019-01-14T20:55:22.731Z,3.10
2019-01-14T20:57:52.227Z,3.10
2019-01-14T21:00:24.659Z,3.10
2019-01-14T21:02:54.445Z,3.10
2019-01-14T21:05:26.060Z,3.10
2019-01-14T21:07:55.969Z,3.00
2019-01-14T21:10:25.493Z,3.00
2019-01-14T21:12:55.079Z,3.00
2019-01-14T21:15:24.902Z,3.00
2019-01-14T21:17:54.542Z,3.00
2019-01-14T21:20:25.559Z,3.00
2019-01-14T21:22:56.324Z,3.00
2019-01-14T21:25:26.193Z,3.10
2019-01-14T21:27:55.701Z,3.10
2019-01-14T21:30:27.011Z,3.10
2019-01-14T21:32:56.876Z,3.10
2019-01-14T21:35:26.433Z,3.10
2019-01-14T21:37:57.944Z,3.20
2019-01-14T21:40:27.423Z,3.20
2019-01-14T21:42:56.822Z,3.20
2019-01-14T21:45:26.427Z,3.20
2019-01-14T21:47:56.202Z,3.20
2019-01-14T21:50:25.784Z,3.20
2019-01-14T21:52:55.312Z,3.10
2019-01-14T21:55:26.285Z,3.10
2019-01-14T21:58:07.361Z,3.10
2019-01-14T22:00:36.758Z,3.10
2019-01-14T22:03:06.375Z,3.00
2019-01-14T22:05:35.817Z,3.00
2019-01-14T22:08:05.957Z,3.00
2019-01-14T22:10:36.119Z,3.00
2019-01-14T22:13:05.780Z,3.00
2019-01-14T22:15:35.516Z,3.10
2019-01-14T22:18:05.251Z,3.00
2019-01-14T22:20:34.953Z,3.00
2019-01-14T22:23:04.628Z,3.10
2019-01-14T22:25:34.257Z,3.00
2019-01-14T22:28:03.833Z,3.00
2019-01-14T22:30:34.879Z,3.10
2019-01-14T22:33:04.515Z,3.10
2019-01-14T22:35:34.009Z,3.10
2019-01-14T22:38:03.495Z,3.00
2019-01-14T22:40:33.112Z,3.10
2019-01-14T22:43:04.317Z,3.10
2019-01-14T22:45:33.773Z,3.10
2019-01-14T22:48:03.363Z,3.10
2019-01-14T22:50:32.810Z,3.10
2019-01-14T22:53:02.217Z,3.10
2019-01-14T22:55:31.659Z,3.10
2019-01-14T22:58:01.129Z,3.10
2019-01-14T23:01:07.107Z,3.10
2019-01-14T23:03:37.325Z,3.10
2019-01-14T23:06:06.803Z,3.10
2019-01-14T23:08:36.195Z,3.10
2019-01-14T23:11:05.926Z,3.10
2019-01-14T23:13:35.391Z,3.10
2019-01-14T23:16:05.687Z,3.10
2019-01-14T23:18:35.139Z,3.10
2019-01-14T23:21:04.594Z,3.00
2019-01-14T23:23:34.416Z,3.10
2019-01-14T23:26:03.825Z,3.00
2019-01-14T23:28:33.649Z,3.00
2019-01-14T23:31:03.204Z,3.00
2019-01-14T23:33:32.577Z,3.00
2019-01-14T23:36:01.907Z,3.00
2019-01-14T23:38:31.337Z,2.90
2019-01-14T23:41:00.871Z,2.90
2019-01-14T23:43:30.531Z,2.90
2019-01-14T23:45:59.949Z,2.90
2019-01-14T23:48:29.314Z,2.90
2019-01-14T23:50:58.794Z,2.90
2019-01-14T23:53:28.245Z,2.80
2019-01-14T23:55:57.661Z,2.80
2019-01-14T23:58:28.237Z,2.80
